sensor_id;sensor_type;location;lat;lon;timestamp;pressure;altitude;pressure_sealevel;temperature;humidity
64343;BME280;50675;53.530;-6.312;2022-08-11T00:00:04;101770.75;;;16.67;53.49
64343;BME280;50675;53.530;-6.312;2022-08-11T00:02:37;101770.75;;;16.67;53.61
64343;BME280;50675;53.530;-6.312;2022-08-11T00:07:32;101765.56;;;16.65;53.76
64343;BME280;50675;53.530;-6.312;2022-08-11T00:09:59;101773.44;;;16.61;53.71
64343;BME280;50675;53.530;-6.312;2022-08-11T00:12:26;101767.09;;;16.56;53.78
64343;BME280;50675;53.530;-6.312;2022-08-11T00:14:58;101772.81;;;16.54;53.90
64343;BME280;50675;53.530;-6.312;2022-08-11T00:17:30;101764.38;;;16.56;53.84
64343;BME280;50675;53.530;-6.312;2022-08-11T00:20:07;101765.19;;;16.56;54.06
64343;BME280;50675;53.530;-6.312;2022-08-11T00:22:36;101765.72;;;16.53;54.29
64343;BME280;50675;53.530;-6.312;2022-08-11T00:25:12;101765.72;;;16.53;54.07
64343;BME280;50675;53.530;-6.312;2022-08-11T00:27:40;101761.84;;;16.49;54.03
64343;BME280;50675;53.530;-6.312;2022-08-11T00:30:09;101761.81;;;16.44;54.24
64343;BME280;50675;53.530;-6.312;2022-08-11T00:32:37;101763.38;;;16.35;54.12
64343;BME280;50675;53.530;-6.312;2022-08-11T00:35:06;101764.78;;;16.38;54.35
64343;BME280;50675;53.530;-6.312;2022-08-11T00:37:33;101764.19;;;16.36;54.59
64343;BME280;50675;53.530;-6.312;2022-08-11T00:40:02;101766.38;;;16.34;54.45
64343;BME280;50675;53.530;-6.312;2022-08-11T00:48:12;101762.25;;;16.31;54.48
64343;BME280;50675;53.530;-6.312;2022-08-11T01:13:43;101764.53;;;16.12;55.03
64343;BME280;50675;53.530;-6.312;2022-08-11T01:50:27;101760.63;;;15.77;55.62
64343;BME280;50675;53.530;-6.312;2022-08-11T01:55:33;101761.44;;;15.77;55.69
64343;BME280;50675;53.530;-6.312;2022-08-11T01:58:19;101755.41;;;15.75;55.61
64343;BME280;50675;53.530;-6.312;2022-08-11T02:03:35;101760.34;;;15.78;55.86
64343;BME280;50675;53.530;-6.312;2022-08-11T02:12:26;101765.94;;;15.66;55.95
64343;BME280;50675;53.530;-6.312;2022-08-11T02:15:11;101763.72;;;15.63;56.06
64343;BME280;50675;53.530;-6.312;2022-08-11T02:20:19;101771.78;;;15.53;56.11
64343;BME280;50675;53.530;-6.312;2022-08-11T02:23:21;101774.25;;;15.55;56.24
64343;BME280;50675;53.530;-6.312;2022-08-11T02:28:50;101766.81;;;15.50;56.26
64343;BME280;50675;53.530;-6.312;2022-08-11T02:36:54;101763.72;;;15.42;56.14
64343;BME280;50675;53.530;-6.312;2022-08-11T02:39:35;101758.25;;;15.42;56.23
64343;BME280;50675;53.530;-6.312;2022-08-11T02:42:05;101754.94;;;15.40;56.31
64343;BME280;50675;53.530;-6.312;2022-08-11T02:50:48;101755.78;;;15.40;56.51
64343;BME280;50675;53.530;-6.312;2022-08-11T02:53:24;101748.72;;;15.39;56.58
64343;BME280;50675;53.530;-6.312;2022-08-11T02:58:47;101756.81;;;15.34;56.66
64343;BME280;50675;53.530;-6.312;2022-08-11T03:01:48;101758.72;;;15.33;56.75
64343;BME280;50675;53.530;-6.312;2022-08-11T03:04:26;101760.03;;;15.31;56.79
64343;BME280;50675;53.530;-6.312;2022-08-11T03:07:04;101751.53;;;15.27;56.83
64343;BME280;50675;53.530;-6.312;2022-08-11T03:10:33;101746.94;;;15.28;56.90
64343;BME280;50675;53.530;-6.312;2022-08-11T03:12:48;101761.06;;;15.25;56.73
64343;BME280;50675;53.530;-6.312;2022-08-11T03:18:55;101750.03;;;15.15;56.83
64343;BME280;50675;53.530;-6.312;2022-08-11T03:25:16;101753.00;;;15.13;56.90
64343;BME280;50675;53.530;-6.312;2022-08-11T03:28:03;101758.69;;;15.12;57.02
64343;BME280;50675;53.530;-6.312;2022-08-11T03:31:24;101751.84;;;15.09;56.98
64343;BME280;50675;53.530;-6.312;2022-08-11T03:33:37;101751.03;;;15.09;57.07
64343;BME280;50675;53.530;-6.312;2022-08-11T03:47:17;101744.44;;;15.05;57.31
64343;BME280;50675;53.530;-6.312;2022-08-11T04:07:03;101731.91;;;15.04;57.36
64343;BME280;50675;53.530;-6.312;2022-08-11T04:10:07;101727.81;;;15.01;57.67
64343;BME280;50675;53.530;-6.312;2022-08-11T04:41:05;101729.25;;;14.87;57.90
64343;BME280;50675;53.530;-6.312;2022-08-11T04:44:18;101727.31;;;14.87;57.93
64343;BME280;50675;53.530;-6.312;2022-08-11T04:47:18;101716.94;;;14.84;58.17
64343;BME280;50675;53.530;-6.312;2022-08-11T04:50:19;101715.81;;;14.80;57.86
64343;BME280;50675;53.530;-6.312;2022-08-11T04:56:03;101721.84;;;14.82;58.19
64343;BME280;50675;53.530;-6.312;2022-08-11T05:04:55;101728.41;;;14.86;58.34
64343;BME280;50675;53.530;-6.312;2022-08-11T05:13:31;101733.34;;;14.89;58.44
64343;BME280;50675;53.530;-6.312;2022-08-11T05:19:27;101735.56;;;14.93;58.42
64343;BME280;50675;53.530;-6.312;2022-08-11T05:22:12;101733.94;;;14.92;58.71
64343;BME280;50675;53.530;-6.312;2022-08-11T05:25:06;101738.94;;;15.00;58.54
64343;BME280;50675;53.530;-6.312;2022-08-11T05:28:11;101740.66;;;15.06;58.76
64343;BME280;50675;53.530;-6.312;2022-08-11T05:31:24;101748.63;;;15.12;58.81
64343;BME280;50675;53.530;-6.312;2022-08-11T05:34:11;101744.50;;;15.10;58.89
64343;BME280;50675;53.530;-6.312;2022-08-11T05:37:10;101748.94;;;15.16;58.80
64343;BME280;50675;53.530;-6.312;2022-08-11T05:39:47;101749.50;;;15.18;58.84
64343;BME280;50675;53.530;-6.312;2022-08-11T05:42:34;101734.59;;;15.20;58.94
64343;BME280;50675;53.530;-6.312;2022-08-11T05:45:21;101737.34;;;15.25;59.06
64343;BME280;50675;53.530;-6.312;2022-08-11T05:48:06;101738.53;;;15.29;58.92
64343;BME280;50675;53.530;-6.312;2022-08-11T05:50:54;101745.94;;;15.34;58.95
64343;BME280;50675;53.530;-6.312;2022-08-11T05:53:52;101741.63;;;15.38;59.01
64343;BME280;50675;53.530;-6.312;2022-08-11T05:56:58;101738.44;;;15.46;59.16
64343;BME280;50675;53.530;-6.312;2022-08-11T05:59:25;101745.03;;;15.50;59.23
64343;BME280;50675;53.530;-6.312;2022-08-11T06:02:03;101741.00;;;15.53;59.28
64343;BME280;50675;53.530;-6.312;2022-08-11T06:04:29;101737.00;;;15.60;59.38
64343;BME280;50675;53.530;-6.312;2022-08-11T06:07:04;101745.22;;;15.65;59.27
64343;BME280;50675;53.530;-6.312;2022-08-11T06:09:35;101742.56;;;15.70;59.18
64343;BME280;50675;53.530;-6.312;2022-08-11T06:12:05;101742.38;;;15.77;59.39
64343;BME280;50675;53.530;-6.312;2022-08-11T06:14:33;101740.25;;;15.84;59.57
64343;BME280;50675;53.530;-6.312;2022-08-11T06:17:02;101740.91;;;15.91;59.50
64343;BME280;50675;53.530;-6.312;2022-08-11T06:19:33;101748.59;;;15.99;59.76
64343;BME280;50675;53.530;-6.312;2022-08-11T06:22:01;101743.06;;;16.21;59.79
64343;BME280;50675;53.530;-6.312;2022-08-11T06:24:27;101745.94;;;16.68;59.84
64343;BME280;50675;53.530;-6.312;2022-08-11T06:26:54;101748.22;;;17.28;59.74
64343;BME280;50675;53.530;-6.312;2022-08-11T06:29:23;101755.56;;;17.90;59.93
64343;BME280;50675;53.530;-6.312;2022-08-11T06:31:55;101755.91;;;18.54;59.90
64343;BME280;50675;53.530;-6.312;2022-08-11T06:42:39;101751.47;;;21.14;59.67
64343;BME280;50675;53.530;-6.312;2022-08-11T06:45:22;101756.19;;;21.74;59.43
64343;BME280;50675;53.530;-6.312;2022-08-11T06:47:51;101746.91;;;22.27;58.99
64343;BME280;50675;53.530;-6.312;2022-08-11T06:50:18;101742.78;;;22.75;58.87
64343;BME280;50675;53.530;-6.312;2022-08-11T06:53:07;101749.16;;;23.17;58.21
64343;BME280;50675;53.530;-6.312;2022-08-11T06:55:41;101750.38;;;23.65;57.88
64343;BME280;50675;53.530;-6.312;2022-08-11T06:58:30;101747.00;;;24.04;57.72
64343;BME280;50675;53.530;-6.312;2022-08-11T07:02:08;101749.50;;;24.50;56.99
64343;BME280;50675;53.530;-6.312;2022-08-11T07:04:12;101744.25;;;24.71;56.93
64343;BME280;50675;53.530;-6.312;2022-08-11T07:06:49;101762.97;;;25.05;56.45
64343;BME280;50675;53.530;-6.312;2022-08-11T07:12:50;101742.53;;;25.71;55.12
64343;BME280;50675;53.530;-6.312;2022-08-11T07:15:37;101755.56;;;25.88;55.14
64343;BME280;50675;53.530;-6.312;2022-08-11T07:18:09;101754.13;;;26.07;54.33
64343;BME280;50675;53.530;-6.312;2022-08-11T07:21:06;101770.75;;;26.42;54.18
64343;BME280;50675;53.530;-6.312;2022-08-11T07:23:53;101760.47;;;26.51;53.61
64343;BME280;50675;53.530;-6.312;2022-08-11T07:26:40;101763.34;;;26.72;52.71
64343;BME280;50675;53.530;-6.312;2022-08-11T07:29:28;101766.91;;;26.81;52.23
64343;BME280;50675;53.530;-6.312;2022-08-11T07:31:56;101765.75;;;26.90;51.98
64343;BME280;50675;53.530;-6.312;2022-08-11T07:34:35;101760.81;;;27.13;51.60
64343;BME280;50675;53.530;-6.312;2022-08-11T07:37:11;101772.00;;;27.25;50.97
64343;BME280;50675;53.530;-6.312;2022-08-11T07:39:43;101765.25;;;27.35;50.56
64343;BME280;50675;53.530;-6.312;2022-08-11T07:42:12;101769.13;;;27.51;50.18
64343;BME280;50675;53.530;-6.312;2022-08-11T07:44:40;101759.91;;;27.59;49.89
64343;BME280;50675;53.530;-6.312;2022-08-11T07:47:26;101754.19;;;27.64;49.61
64343;BME280;50675;53.530;-6.312;2022-08-11T07:50:11;101751.03;;;27.66;49.03
64343;BME280;50675;53.530;-6.312;2022-08-11T07:52:57;101753.78;;;27.74;48.33
64343;BME280;50675;53.530;-6.312;2022-08-11T07:55:24;101746.41;;;27.78;48.20
64343;BME280;50675;53.530;-6.312;2022-08-11T07:57:51;101746.94;;;27.72;47.86
64343;BME280;50675;53.530;-6.312;2022-08-11T08:00:39;101746.25;;;27.54;47.81
64343;BME280;50675;53.530;-6.312;2022-08-11T08:03:26;101742.59;;;27.62;47.19
64343;BME280;50675;53.530;-6.312;2022-08-11T08:06:10;101757.88;;;27.39;46.75
64343;BME280;50675;53.530;-6.312;2022-08-11T08:08:56;101754.59;;;27.46;46.25
64343;BME280;50675;53.530;-6.312;2022-08-11T08:11:42;101750.50;;;27.14;46.60
64343;BME280;50675;53.530;-6.312;2022-08-11T08:14:28;101744.88;;;26.93;45.90
64343;BME280;50675;53.530;-6.312;2022-08-11T08:17:13;101734.00;;;26.79;46.31
64343;BME280;50675;53.530;-6.312;2022-08-11T08:19:57;101747.09;;;26.53;45.98
64343;BME280;50675;53.530;-6.312;2022-08-11T08:22:24;101743.06;;;26.25;45.95
64343;BME280;50675;53.530;-6.312;2022-08-11T08:24:50;101731.63;;;26.00;45.52
64343;BME280;50675;53.530;-6.312;2022-08-11T08:27:17;101738.00;;;25.84;45.80
64343;BME280;50675;53.530;-6.312;2022-08-11T08:29:45;101738.78;;;25.67;45.69
64343;BME280;50675;53.530;-6.312;2022-08-11T08:32:30;101727.66;;;25.41;45.59
64343;BME280;50675;53.530;-6.312;2022-08-11T08:34:58;101732.97;;;25.29;45.72
64343;BME280;50675;53.530;-6.312;2022-08-11T08:37:25;101733.38;;;25.05;45.41
64343;BME280;50675;53.530;-6.312;2022-08-11T08:39:54;101724.22;;;24.96;45.79
64343;BME280;50675;53.530;-6.312;2022-08-11T08:42:27;101732.28;;;24.84;45.61
64343;BME280;50675;53.530;-6.312;2022-08-11T08:45:03;101725.41;;;24.73;45.52
64343;BME280;50675;53.530;-6.312;2022-08-11T08:47:30;101722.09;;;24.62;45.64
64343;BME280;50675;53.530;-6.312;2022-08-11T08:50:11;101726.91;;;24.57;45.75
64343;BME280;50675;53.530;-6.312;2022-08-11T08:52:42;101725.09;;;24.52;45.80
64343;BME280;50675;53.530;-6.312;2022-08-11T08:55:16;101722.56;;;24.56;46.20
64343;BME280;50675;53.530;-6.312;2022-08-11T08:57:42;101724.38;;;24.60;45.75
64343;BME280;50675;53.530;-6.312;2022-08-11T09:00:09;101716.78;;;24.44;46.19
64343;BME280;50675;53.530;-6.312;2022-08-11T09:02:38;101718.53;;;24.39;45.89
64343;BME280;50675;53.530;-6.312;2022-08-11T09:05:05;101716.28;;;24.42;46.12
64343;BME280;50675;53.530;-6.312;2022-08-11T09:07:33;101711.25;;;24.44;46.09
64343;BME280;50675;53.530;-6.312;2022-08-11T09:09:59;101711.91;;;24.40;46.35
64343;BME280;50675;53.530;-6.312;2022-08-11T09:12:27;101710.94;;;24.45;46.34
64343;BME280;50675;53.530;-6.312;2022-08-11T09:14:55;101715.00;;;24.48;46.42
64343;BME280;50675;53.530;-6.312;2022-08-11T09:17:43;101717.03;;;24.56;46.44
64343;BME280;50675;53.530;-6.312;2022-08-11T09:20:29;101718.63;;;24.57;46.32
64343;BME280;50675;53.530;-6.312;2022-08-11T09:23:01;101711.03;;;24.62;46.49
64343;BME280;50675;53.530;-6.312;2022-08-11T09:25:47;101707.97;;;24.64;45.99
64343;BME280;50675;53.530;-6.312;2022-08-11T09:28:33;101707.97;;;24.64;46.52
64343;BME280;50675;53.530;-6.312;2022-08-11T09:31:00;101700.84;;;24.71;46.36
64343;BME280;50675;53.530;-6.312;2022-08-11T09:33:27;101709.94;;;24.72;46.49
64343;BME280;50675;53.530;-6.312;2022-08-11T09:35:55;101708.38;;;24.79;46.43
64343;BME280;50675;53.530;-6.312;2022-08-11T09:38:23;101708.03;;;24.81;45.97
64343;BME280;50675;53.530;-6.312;2022-08-11T09:41:10;101709.97;;;24.80;46.20
64343;BME280;50675;53.530;-6.312;2022-08-11T09:43:42;101707.41;;;24.84;46.17
64343;BME280;50675;53.530;-6.312;2022-08-11T09:46:28;101707.78;;;24.91;46.11
64343;BME280;50675;53.530;-6.312;2022-08-11T09:48:57;101707.47;;;24.93;45.83
64343;BME280;50675;53.530;-6.312;2022-08-11T09:51:24;101705.38;;;24.98;45.82
64343;BME280;50675;53.530;-6.312;2022-08-11T09:53:51;101705.25;;;25.03;46.14
64343;BME280;50675;53.530;-6.312;2022-08-11T09:56:20;101698.75;;;25.08;46.05
64343;BME280;50675;53.530;-6.312;2022-08-11T09:59:05;101694.34;;;25.07;46.00
64343;BME280;50675;53.530;-6.312;2022-08-11T10:01:39;101703.31;;;25.12;45.86
64343;BME280;50675;53.530;-6.312;2022-08-11T10:04:18;101696.00;;;25.16;45.41
64343;BME280;50675;53.530;-6.312;2022-08-11T10:06:48;101691.47;;;25.20;45.87
64343;BME280;50675;53.530;-6.312;2022-08-11T10:09:32;101690.66;;;25.20;45.80
64343;BME280;50675;53.530;-6.312;2022-08-11T10:12:00;101683.69;;;25.22;45.32
64343;BME280;50675;53.530;-6.312;2022-08-11T10:14:28;101682.22;;;25.34;45.26
64343;BME280;50675;53.530;-6.312;2022-08-11T10:17:15;101689.88;;;25.37;45.07
64343;BME280;50675;53.530;-6.312;2022-08-11T10:19:46;101683.69;;;25.40;44.81
64343;BME280;50675;53.530;-6.312;2022-08-11T10:22:20;101681.91;;;25.44;45.10
64343;BME280;50675;53.530;-6.312;2022-08-11T10:25:05;101689.59;;;25.47;45.02
64343;BME280;50675;53.530;-6.312;2022-08-11T10:27:49;101684.22;;;25.50;44.44
64343;BME280;50675;53.530;-6.312;2022-08-11T10:30:26;101688.25;;;25.53;44.48
64343;BME280;50675;53.530;-6.312;2022-08-11T10:33:12;101690.09;;;25.57;43.97
64343;BME280;50675;53.530;-6.312;2022-08-11T10:35:58;101681.63;;;25.62;44.08
64343;BME280;50675;53.530;-6.312;2022-08-11T10:38:25;101681.47;;;25.59;43.84
64343;BME280;50675;53.530;-6.312;2022-08-11T10:40:53;101674.31;;;25.66;43.57
64343;BME280;50675;53.530;-6.312;2022-08-11T10:43:39;101681.47;;;25.67;43.41
64343;BME280;50675;53.530;-6.312;2022-08-11T10:46:08;101680.84;;;25.71;43.42
64343;BME280;50675;53.530;-6.312;2022-08-11T10:48:55;101681.16;;;25.78;43.63
64343;BME280;50675;53.530;-6.312;2022-08-11T10:51:25;101676.44;;;25.78;43.46
64343;BME280;50675;53.530;-6.312;2022-08-11T10:54:10;101664.88;;;25.76;43.44
64343;BME280;50675;53.530;-6.312;2022-08-11T10:56:58;101676.94;;;25.80;42.76
64343;BME280;50675;53.530;-6.312;2022-08-11T10:59:44;101670.25;;;25.81;42.69
64343;BME280;50675;53.530;-6.312;2022-08-11T11:02:15;101673.03;;;25.90;43.05
64343;BME280;50675;53.530;-6.312;2022-08-11T11:05:03;101673.66;;;25.95;42.61
64343;BME280;50675;53.530;-6.312;2022-08-11T11:07:41;101670.06;;;25.86;42.59
64343;BME280;50675;53.530;-6.312;2022-08-11T11:10:12;101670.59;;;25.80;42.65
64343;BME280;50675;53.530;-6.312;2022-08-11T11:12:46;101671.41;;;25.80;42.88
64343;BME280;50675;53.530;-6.312;2022-08-11T11:15:34;101661.94;;;25.81;42.73
64343;BME280;50675;53.530;-6.312;2022-08-11T11:18:24;101659.81;;;25.87;42.76
64343;BME280;50675;53.530;-6.312;2022-08-11T11:21:07;101668.78;;;25.84;42.69
64343;BME280;50675;53.530;-6.312;2022-08-11T11:37:28;101672.19;;;25.81;42.69
64343;BME280;50675;53.530;-6.312;2022-08-11T11:39:56;101660.34;;;25.80;43.04
64343;BME280;50675;53.530;-6.312;2022-08-11T11:42:24;101664.22;;;25.79;42.51
64343;BME280;50675;53.530;-6.312;2022-08-11T11:44:50;101660.97;;;25.77;42.47
64343;BME280;50675;53.530;-6.312;2022-08-11T11:47:16;101663.88;;;25.81;42.61
64343;BME280;50675;53.530;-6.312;2022-08-11T11:49:47;101668.13;;;25.78;42.46
64343;BME280;50675;53.530;-6.312;2022-08-11T11:52:15;101668.13;;;25.78;42.89
64343;BME280;50675;53.530;-6.312;2022-08-11T11:54:45;101665.88;;;25.80;42.46
64343;BME280;50675;53.530;-6.312;2022-08-11T11:57:16;101666.03;;;25.75;42.65
64343;BME280;50675;53.530;-6.312;2022-08-11T12:00:04;101674.66;;;25.82;42.25
64343;BME280;50675;53.530;-6.312;2022-08-11T12:02:49;101672.38;;;25.84;42.72
64343;BME280;50675;53.530;-6.312;2022-08-11T12:05:16;101667.81;;;25.80;42.42
64343;BME280;50675;53.530;-6.312;2022-08-11T12:07:43;101673.00;;;25.81;42.20
64343;BME280;50675;53.530;-6.312;2022-08-11T12:10:28;101670.06;;;25.86;41.78
64343;BME280;50675;53.530;-6.312;2022-08-11T12:12:55;101657.88;;;25.79;41.88
64343;BME280;50675;53.530;-6.312;2022-08-11T12:15:39;101656.75;;;25.88;41.85
64343;BME280;50675;53.530;-6.312;2022-08-11T12:18:05;101668.47;;;25.94;41.70
64343;BME280;50675;53.530;-6.312;2022-08-11T12:20:31;101674.31;;;25.84;41.15
64343;BME280;50675;53.530;-6.312;2022-08-11T12:22:57;101676.44;;;25.87;41.48
64343;BME280;50675;53.530;-6.312;2022-08-11T12:25:42;101658.03;;;25.82;41.21
64343;BME280;50675;53.530;-6.312;2022-08-11T12:28:28;101662.91;;;25.85;40.92
64343;BME280;50675;53.530;-6.312;2022-08-11T12:30:55;101667.16;;;25.91;40.40
64343;BME280;50675;53.530;-6.312;2022-08-11T12:33:21;101665.03;;;25.88;40.43
64343;BME280;50675;53.530;-6.312;2022-08-11T12:35:52;101658.53;;;25.84;40.03
64343;BME280;50675;53.530;-6.312;2022-08-11T12:38:20;101663.53;;;25.99;40.28
64343;BME280;50675;53.530;-6.312;2022-08-11T12:40:47;101654.28;;;25.87;39.71
64343;BME280;50675;53.530;-6.312;2022-08-11T12:43:36;101659.19;;;25.90;39.57
64343;BME280;50675;53.530;-6.312;2022-08-11T12:46:27;101661.78;;;25.86;39.96
64343;BME280;50675;53.530;-6.312;2022-08-11T12:48:58;101653.81;;;25.85;39.46
64343;BME280;50675;53.530;-6.312;2022-08-11T12:52:03;101651.84;;;25.85;39.55
64343;BME280;50675;53.530;-6.312;2022-08-11T12:54:47;101652.47;;;25.91;39.19
64343;BME280;50675;53.530;-6.312;2022-08-11T12:57:22;101645.16;;;25.86;39.36
64343;BME280;50675;53.530;-6.312;2022-08-11T13:00:09;101646.50;;;25.80;38.81
64343;BME280;50675;53.530;-6.312;2022-08-11T13:02:54;101640.47;;;25.78;38.72
64343;BME280;50675;53.530;-6.312;2022-08-11T13:05:43;101647.44;;;25.76;38.88
64343;BME280;50675;53.530;-6.312;2022-08-11T13:08:11;101646.00;;;25.78;38.20
64343;BME280;50675;53.530;-6.312;2022-08-11T13:10:39;101643.06;;;25.83;38.52
64343;BME280;50675;53.530;-6.312;2022-08-11T13:13:24;101633.13;;;25.74;38.28
64343;BME280;50675;53.530;-6.312;2022-08-11T13:15:50;101639.34;;;25.71;38.09
64343;BME280;50675;53.530;-6.312;2022-08-11T13:18:17;101643.06;;;25.83;37.92
64343;BME280;50675;53.530;-6.312;2022-08-11T13:20:52;101629.22;;;25.75;38.14
64343;BME280;50675;53.530;-6.312;2022-08-11T13:23:19;101637.19;;;25.76;37.84
64343;BME280;50675;53.530;-6.312;2022-08-11T13:25:46;101628.72;;;25.81;37.48
64343;BME280;50675;53.530;-6.312;2022-08-11T13:28:13;101627.28;;;25.84;37.74
64343;BME280;50675;53.530;-6.312;2022-08-11T13:30:41;101638.00;;;25.85;37.44
64343;BME280;50675;53.530;-6.312;2022-08-11T13:33:25;101629.38;;;25.78;37.59
64343;BME280;50675;53.530;-6.312;2022-08-11T13:35:52;101629.22;;;25.83;37.29
64343;BME280;50675;53.530;-6.312;2022-08-11T13:38:20;101626.78;;;25.82;37.35
64343;BME280;50675;53.530;-6.312;2022-08-11T13:40:48;101630.69;;;25.72;36.90
64343;BME280;50675;53.530;-6.312;2022-08-11T13:43:18;101629.06;;;25.80;37.00
64343;BME280;50675;53.530;-6.312;2022-08-11T13:45:46;101619.59;;;25.81;37.06
64343;BME280;50675;53.530;-6.312;2022-08-11T13:48:12;101626.94;;;25.77;36.65
64343;BME280;50675;53.530;-6.312;2022-08-11T13:50:40;101627.59;;;25.82;36.58
64343;BME280;50675;53.530;-6.312;2022-08-11T13:53:26;101623.84;;;25.78;37.16
64343;BME280;50675;53.530;-6.312;2022-08-11T13:55:54;101623.50;;;25.71;36.54
64343;BME280;50675;53.530;-6.312;2022-08-11T13:58:22;101615.56;;;25.78;36.64
64343;BME280;50675;53.530;-6.312;2022-08-11T14:00:49;101623.53;;;25.80;36.50
64343;BME280;50675;53.530;-6.312;2022-08-11T14:03:22;101613.44;;;25.75;36.38
64343;BME280;50675;53.530;-6.312;2022-08-11T14:05:49;101618.31;;;25.78;36.61
64343;BME280;50675;53.530;-6.312;2022-08-11T14:08:25;101608.22;;;25.82;36.71
64343;BME280;50675;53.530;-6.312;2022-08-11T14:10:54;101612.47;;;25.80;36.69
64343;BME280;50675;53.530;-6.312;2022-08-11T14:13:43;101611.28;;;25.81;36.11
64343;BME280;50675;53.530;-6.312;2022-08-11T14:16:23;101614.22;;;25.76;36.53
64343;BME280;50675;53.530;-6.312;2022-08-11T14:18:53;101612.78;;;25.78;36.04
64343;BME280;50675;53.530;-6.312;2022-08-11T14:21:22;101613.09;;;25.77;35.97
64343;BME280;50675;53.530;-6.312;2022-08-11T14:24:08;101606.44;;;25.69;36.11
64343;BME280;50675;53.530;-6.312;2022-08-11T14:26:37;101610.84;;;25.70;36.09
64343;BME280;50675;53.530;-6.312;2022-08-11T14:31:35;101605.75;;;25.81;36.12
64343;BME280;50675;53.530;-6.312;2022-08-11T14:34:05;101605.63;;;25.77;35.86
64343;BME280;50675;53.530;-6.312;2022-08-11T14:36:34;101604.16;;;25.80;35.66
64343;BME280;50675;53.530;-6.312;2022-08-11T14:39:05;101601.53;;;25.83;35.44
64343;BME280;50675;53.530;-6.312;2022-08-11T14:41:31;101600.06;;;25.77;35.67
64343;BME280;50675;53.530;-6.312;2022-08-11T14:44:16;101593.72;;;25.77;35.84
64343;BME280;50675;53.530;-6.312;2022-08-11T14:47:01;101603.16;;;25.76;35.93
64343;BME280;50675;53.530;-6.312;2022-08-11T14:49:36;101592.91;;;25.76;35.40
64343;BME280;50675;53.530;-6.312;2022-08-11T14:52:06;101601.72;;;25.78;35.42
64343;BME280;50675;53.530;-6.312;2022-08-11T14:54:33;101598.78;;;25.75;35.28
64343;BME280;50675;53.530;-6.312;2022-08-11T14:57:19;101592.75;;;25.81;35.04
64343;BME280;50675;53.530;-6.312;2022-08-11T14:59:48;101584.28;;;25.78;35.39
64343;BME280;50675;53.530;-6.312;2022-08-11T15:02:17;101585.41;;;25.85;35.57
64343;BME280;50675;53.530;-6.312;2022-08-11T15:05:03;101591.13;;;25.89;34.98
64343;BME280;50675;53.530;-6.312;2022-08-11T15:07:31;101582.00;;;25.80;34.98
64343;BME280;50675;53.530;-6.312;2022-08-11T15:09:58;101592.09;;;25.84;35.48
64343;BME280;50675;53.530;-6.312;2022-08-11T15:12:25;101594.53;;;25.86;35.06
64343;BME280;50675;53.530;-6.312;2022-08-11T15:14:51;101598.09;;;25.86;34.90
64343;BME280;50675;53.530;-6.312;2022-08-11T15:17:37;101592.41;;;25.83;35.31
64343;BME280;50675;53.530;-6.312;2022-08-11T15:20:07;101597.00;;;25.79;35.08
64343;BME280;50675;53.530;-6.312;2022-08-11T15:22:52;101598.78;;;25.83;34.94
64343;BME280;50675;53.530;-6.312;2022-08-11T15:25:37;101592.09;;;25.76;34.92
64343;BME280;50675;53.530;-6.312;2022-08-11T15:28:07;101580.22;;;25.75;34.73
64343;BME280;50675;53.530;-6.312;2022-08-11T15:30:56;101578.75;;;25.78;34.38
64343;BME280;50675;53.530;-6.312;2022-08-11T15:33:43;101576.94;;;25.82;34.30
64343;BME280;50675;53.530;-6.312;2022-08-11T15:36:29;101580.69;;;25.77;34.46
64343;BME280;50675;53.530;-6.312;2022-08-11T15:39:18;101582.84;;;25.80;34.45
64343;BME280;50675;53.530;-6.312;2022-08-11T15:41:53;101577.28;;;25.80;34.30
64343;BME280;50675;53.530;-6.312;2022-08-11T15:44:41;101577.94;;;25.77;34.38
64343;BME280;50675;53.530;-6.312;2022-08-11T15:47:35;101577.63;;;25.70;33.96
64343;BME280;50675;53.530;-6.312;2022-08-11T15:50:03;101573.69;;;25.71;34.13
64343;BME280;50675;53.530;-6.312;2022-08-11T15:52:34;101579.09;;;25.67;33.66
64343;BME280;50675;53.530;-6.312;2022-08-11T15:55:06;101583.00;;;25.66;33.92
64343;BME280;50675;53.530;-6.312;2022-08-11T15:57:32;101572.91;;;25.71;33.73
64343;BME280;50675;53.530;-6.312;2022-08-11T16:00:17;101575.69;;;25.71;33.94
64343;BME280;50675;53.530;-6.312;2022-08-11T16:03:03;101575.19;;;25.68;33.55
64343;BME280;50675;53.530;-6.312;2022-08-11T16:05:49;101570.31;;;25.65;33.81
64343;BME280;50675;53.530;-6.312;2022-08-11T16:08:18;101567.38;;;25.71;33.97
64343;BME280;50675;53.530;-6.312;2022-08-11T16:10:47;101583.50;;;25.60;33.81
64343;BME280;50675;53.530;-6.312;2022-08-11T16:13:13;101574.53;;;25.63;33.46
64343;BME280;50675;53.530;-6.312;2022-08-11T16:15:54;101572.59;;;25.63;33.27
64343;BME280;50675;53.530;-6.312;2022-08-11T16:21:29;101575.06;;;25.56;33.12
64343;BME280;50675;53.530;-6.312;2022-08-11T16:23:57;101578.13;;;25.55;33.01
64343;BME280;50675;53.530;-6.312;2022-08-11T16:26:24;101569.31;;;25.53;33.56
64343;BME280;50675;53.530;-6.312;2022-08-11T16:28:55;101570.94;;;25.45;33.53
64343;BME280;50675;53.530;-6.312;2022-08-11T16:31:23;101566.06;;;25.51;33.14
64343;BME280;50675;53.530;-6.312;2022-08-11T16:33:50;101555.78;;;25.43;33.14
64343;BME280;50675;53.530;-6.312;2022-08-11T16:36:18;101570.59;;;25.38;33.43
64343;BME280;50675;53.530;-6.312;2022-08-11T16:39:04;101572.56;;;25.38;33.21
64343;BME280;50675;53.530;-6.312;2022-08-11T16:41:32;101569.00;;;25.37;33.00
64343;BME280;50675;53.530;-6.312;2022-08-11T16:44:18;101580.53;;;25.31;32.94
64343;BME280;50675;53.530;-6.312;2022-08-11T16:47:05;101568.81;;;25.25;33.12
64343;BME280;50675;53.530;-6.312;2022-08-11T16:49:38;101574.34;;;25.25;32.94
64343;BME280;50675;53.530;-6.312;2022-08-11T16:52:08;101571.44;;;25.13;33.09
64343;BME280;50675;53.530;-6.312;2022-08-11T16:54:37;101570.75;;;25.16;33.09
64343;BME280;50675;53.530;-6.312;2022-08-11T16:57:06;101565.56;;;25.14;33.30